createdAt,value
2022-10-02T00:01:11.088Z,12.20
2022-10-02T00:03:43.094Z,12.20
2022-10-02T00:06:18.927Z,12.20
2022-10-02T00:08:48.391Z,12.30
2022-10-02T00:11:21.617Z,12.20
2022-10-02T00:13:52.604Z,12.30
2022-10-02T00:16:33.778Z,12.40
2022-10-02T00:19:02.198Z,12.40
2022-10-02T00:21:46.082Z,12.50
2022-10-02T00:24:18.691Z,12.50
2022-10-02T00:26:56.355Z,12.50
2022-10-02T00:29:40.918Z,12.40
2022-10-02T00:32:21.728Z,12.40
2022-10-02T00:35:02.757Z,12.50
2022-10-02T00:37:41.222Z,12.70
2022-10-02T00:40:36.005Z,12.70
2022-10-02T00:43:14.240Z,12.80
2022-10-02T00:46:01.785Z,12.80
2022-10-02T00:48:52.073Z,13.10
2022-10-02T00:51:34.208Z,12.90
2022-10-02T00:54:15.300Z,13.00
2022-10-02T00:56:53.576Z,12.90
2022-10-02T00:59:40.399Z,13.00
2022-10-02T01:02:14.981Z,13.00
2022-10-02T01:04:43.399Z,13.00
2022-10-02T01:07:14.050Z,13.00
2022-10-02T01:09:44.017Z,13.00
2022-10-02T01:12:12.810Z,13.10
2022-10-02T01:14:41.826Z,13.00
2022-10-02T01:17:23.846Z,13.00
2022-10-02T01:19:52.382Z,12.90
2022-10-02T01:22:26.887Z,12.90
2022-10-02T01:24:56.834Z,12.90
2022-10-02T01:27:26.487Z,13.00
2022-10-02T01:29:58.167Z,12.90
2022-10-02T01:32:28.096Z,13.00
2022-10-02T01:34:57.110Z,13.00
2022-10-02T01:37:28.273Z,13.00
2022-10-02T01:40:02.760Z,13.10
2022-10-02T01:42:31.202Z,13.00
2022-10-02T01:44:59.855Z,13.00
2022-10-02T01:47:36.219Z,12.90
2022-10-02T01:50:13.677Z,12.90
2022-10-02T01:52:50.857Z,13.00
2022-10-02T01:55:29.380Z,13.00
2022-10-02T01:58:16.745Z,13.10
2022-10-02T02:00:58.437Z,13.10
2022-10-02T02:03:38.146Z,13.10
2022-10-02T02:06:13.728Z,13.10
2022-10-02T02:08:50.556Z,13.20
2022-10-02T02:11:25.677Z,13.20
2022-10-02T02:13:59.311Z,13.10
2022-10-02T02:16:32.603Z,13.10
2022-10-02T02:19:06.452Z,13.10
2022-10-02T02:21:38.682Z,13.00
2022-10-02T02:24:13.213Z,13.10
2022-10-02T02:26:46.997Z,13.00
2022-10-02T02:29:18.940Z,13.00
2022-10-02T02:31:52.858Z,13.00
2022-10-02T02:34:24.527Z,12.90
2022-10-02T02:36:57.863Z,12.90
2022-10-02T02:39:31.729Z,12.90
2022-10-02T02:42:04.693Z,12.90
2022-10-02T02:44:37.950Z,12.80
2022-10-02T02:47:12.786Z,12.80
2022-10-02T02:49:49.727Z,12.90
2022-10-02T02:52:22.984Z,12.80
2022-10-02T02:54:57.378Z,12.80
2022-10-02T02:57:35.201Z,12.80
2022-10-02T03:00:06.658Z,12.80
2022-10-02T03:02:35.135Z,12.80
2022-10-02T03:05:03.060Z,12.80
2022-10-02T03:07:30.970Z,12.80
2022-10-02T03:10:11.078Z,12.80
2022-10-02T03:12:53.382Z,12.80
2022-10-02T03:15:29.672Z,12.80
2022-10-02T03:18:10.244Z,12.80
2022-10-02T03:20:44.713Z,12.80
2022-10-02T03:23:20.906Z,12.80
2022-10-02T03:25:53.700Z,12.80
2022-10-02T03:28:53.710Z,12.90
2022-10-02T03:31:19.635Z,12.90
2022-10-02T03:33:49.734Z,12.90
2022-10-02T03:36:20.584Z,13.00
2022-10-02T03:39:00.776Z,12.90
2022-10-02T03:41:34.412Z,12.90
2022-10-02T03:44:03.869Z,12.90
2022-10-02T03:46:31.821Z,12.90
2022-10-02T03:48:59.890Z,12.90
2022-10-02T03:51:27.739Z,12.90
2022-10-02T03:53:55.715Z,12.90
2022-10-02T03:56:37.407Z,12.80
2022-10-02T03:59:15.215Z,12.80
2022-10-02T04:01:49.295Z,12.80
2022-10-02T04:04:24.332Z,12.80
2022-10-02T04:06:57.636Z,12.70
2022-10-02T04:09:30.714Z,12.70
2022-10-02T04:12:04.433Z,12.60
2022-10-02T04:14:41.386Z,12.60
2022-10-02T04:17:15.216Z,12.60
2022-10-02T04:19:47.235Z,12.60
2022-10-02T04:22:22.139Z,12.60
2022-10-02T04:24:55.446Z,12.60
2022-10-02T04:27:33.675Z,12.50
2022-10-02T04:30:08.064Z,12.60
2022-10-02T04:32:37.210Z,12.50
2022-10-02T04:35:13.282Z,12.50
2022-10-02T04:38:03.719Z,12.50
2022-10-02T04:40:50.419Z,12.50
2022-10-02T04:43:28.536Z,12.50
2022-10-02T04:46:10.769Z,12.50
2022-10-02T04:49:09.205Z,12.50
2022-10-02T04:51:51.973Z,12.40
2022-10-02T04:54:38.411Z,12.50
2022-10-02T04:57:23.423Z,12.50
2022-10-02T05:00:03.049Z,12.40
2022-10-02T05:02:44.108Z,12.40
2022-10-02T05:05:26.528Z,12.40
2022-10-02T05:08:16.029Z,12.40
2022-10-02T05:11:08.603Z,12.40
2022-10-02T05:14:05.834Z,12.40
2022-10-02T05:16:56.726Z,12.40
2022-10-02T05:19:48.189Z,12.40
2022-10-02T05:22:39.807Z,12.30
2022-10-02T05:25:35.916Z,12.30
2022-10-02T05:28:18.294Z,12.30
2022-10-02T05:30:49.405Z,12.30
2022-10-02T05:33:49.054Z,12.30
2022-10-02T05:36:37.086Z,12.30
2022-10-02T05:39:08.533Z,12.30
2022-10-02T05:41:50.033Z,12.30
2022-10-02T05:44:20.519Z,12.30
2022-10-02T05:46:55.959Z,12.20
2022-10-02T05:49:30.147Z,12.20
2022-10-02T05:52:03.393Z,12.30
2022-10-02T05:54:41.995Z,12.30
2022-10-02T05:57:17.031Z,12.30
2022-10-02T05:59:54.184Z,12.30
2022-10-02T06:02:28.370Z,12.30
2022-10-02T06:05:04.443Z,12.30
2022-10-02T06:07:34.485Z,12.30
2022-10-02T06:10:10.772Z,12.30
2022-10-02T06:12:44.281Z,12.30
2022-10-02T06:15:22.669Z,12.30
2022-10-02T06:17:56.724Z,12.40
2022-10-02T06:20:30.338Z,12.40
2022-10-02T06:23:05.211Z,12.40
2022-10-02T06:25:37.913Z,12.40
2022-10-02T06:28:14.649Z,12.40
2022-10-02T06:30:47.454Z,12.40
2022-10-02T06:33:21.411Z,12.40
2022-10-02T06:36:10.432Z,12.40
2022-10-02T06:38:55.369Z,12.40
2022-10-02T06:41:30.602Z,12.50
2022-10-02T06:44:10.591Z,12.50
2022-10-02T06:46:51.196Z,12.50
2022-10-02T06:49:32.314Z,12.50
2022-10-02T06:52:13.871Z,12.60
2022-10-02T06:54:57.517Z,12.60
2022-10-02T06:57:40.364Z,12.70
2022-10-02T07:00:12.486Z,12.70
2022-10-02T07:03:01.960Z,12.70
2022-10-02T07:05:59.685Z,12.70
2022-10-02T07:08:39.411Z,12.70
2022-10-02T07:11:18.254Z,12.80
2022-10-02T07:14:02.269Z,12.80
2022-10-02T07:16:58.121Z,12.80
2022-10-02T07:19:46.750Z,12.90
2022-10-02T07:22:44.942Z,12.90
2022-10-02T07:25:43.069Z,12.90
2022-10-02T07:28:19.898Z,12.80
2022-10-02T07:30:56.655Z,12.90
2022-10-02T07:33:36.278Z,12.90
2022-10-02T07:36:11.930Z,12.90
2022-10-02T07:38:53.285Z,12.90
2022-10-02T07:41:45.682Z,12.90
2022-10-02T07:44:29.703Z,13.00
2022-10-02T07:47:07.271Z,13.00
2022-10-02T07:49:48.287Z,13.00
2022-10-02T07:52:25.651Z,13.00
2022-10-02T07:55:08.743Z,13.00
2022-10-02T07:57:41.913Z,13.00
2022-10-02T08:00:15.671Z,13.10
2022-10-02T08:02:52.611Z,13.30
2022-10-02T08:05:23.585Z,13.40
2022-10-02T08:07:55.245Z,13.50
2022-10-02T08:10:27.036Z,13.50
2022-10-02T08:13:04.146Z,13.50
2022-10-02T08:15:38.768Z,13.60
2022-10-02T08:18:35.571Z,13.60
2022-10-02T08:21:09.716Z,13.60
2022-10-02T08:23:44.275Z,13.50
2022-10-02T08:26:19.979Z,13.50
2022-10-02T08:28:56.828Z,13.50
2022-10-02T08:31:26.344Z,13.50
2022-10-02T08:33:55.483Z,13.40
2022-10-02T08:36:51.396Z,13.40
2022-10-02T08:39:38.733Z,13.40
2022-10-02T08:42:33.591Z,13.60
2022-10-02T08:45:24.116Z,13.70
2022-10-02T08:48:39.911Z,13.60
2022-10-02T08:51:45.794Z,13.60
2022-10-02T08:54:42.014Z,13.60
2022-10-02T08:57:26.489Z,13.60
2022-10-02T09:00:14.362Z,13.60
2022-10-02T09:03:20.545Z,13.60
2022-10-02T09:06:11.355Z,13.60
2022-10-02T09:09:08.263Z,13.60
2022-10-02T09:11:54.861Z,13.60
2022-10-02T09:14:55.600Z,13.60
2022-10-02T09:17:48.089Z,13.60
2022-10-02T09:20:48.897Z,13.70
2022-10-02T09:23:46.152Z,13.80
2022-10-02T09:26:20.892Z,13.90
2022-10-02T09:29:29.163Z,14.00
2022-10-02T09:32:46.322Z,14.20
2022-10-02T09:35:53.405Z,14.30
2022-10-02T09:38:58.192Z,14.20
2022-10-02T09:42:09.831Z,14.00
2022-10-02T09:45:08.660Z,14.10
2022-10-02T09:48:05.092Z,14.10
2022-10-02T09:51:10.911Z,14.30
2022-10-02T09:54:32.748Z,14.30
2022-10-02T09:57:32.062Z,14.30
2022-10-02T10:00:15.066Z,14.40
2022-10-02T10:03:20.423Z,14.40
2022-10-02T10:06:08.290Z,14.40
2022-10-02T10:09:16.784Z,14.50
2022-10-02T10:11:59.101Z,14.40
2022-10-02T10:15:09.175Z,14.40
2022-10-02T10:18:08.136Z,14.50
2022-10-02T10:21:01.013Z,14.50
2022-10-02T10:24:03.524Z,14.60
2022-10-02T10:27:11.015Z,14.70
2022-10-02T10:30:21.891Z,14.90
2022-10-02T10:33:17.095Z,15.00
2022-10-02T10:36:31.983Z,15.00
2022-10-02T10:39:18.746Z,14.90
2022-10-02T10:42:14.957Z,14.90
2022-10-02T10:45:18.342Z,15.00
2022-10-02T10:48:18.714Z,15.30
2022-10-02T10:50:55.471Z,15.30
2022-10-02T10:54:01.909Z,15.30
2022-10-02T10:56:39.557Z,15.20
2022-10-02T10:59:46.261Z,15.20
2022-10-02T11:02:44.359Z,15.20
2022-10-02T11:05:41.508Z,15.10
2022-10-02T11:08:31.673Z,15.20
2022-10-02T11:11:09.888Z,15.20
2022-10-02T11:13:55.312Z,15.30
2022-10-02T11:16:39.209Z,15.20
2022-10-02T11:19:30.223Z,15.10
2022-10-02T11:22:12.609Z,15.10
2022-10-02T11:25:12.928Z,15.00
2022-10-02T11:28:23.164Z,15.00
2022-10-02T11:31:01.479Z,14.80
2022-10-02T11:33:57.546Z,14.90
2022-10-02T11:36:47.460Z,14.80
2022-10-02T11:39:17.346Z,14.80
2022-10-02T11:42:14.967Z,14.80
2022-10-02T11:45:16.425Z,14.90
2022-10-02T11:48:18.635Z,14.90
2022-10-02T11:51:12.207Z,15.00
2022-10-02T11:54:05.811Z,15.10
2022-10-02T11:57:00.502Z,15.20
2022-10-02T12:00:04.578Z,15.20
2022-10-02T12:02:39.019Z,15.30
2022-10-02T12:05:31.482Z,15.20
2022-10-02T12:08:09.550Z,15.20
2022-10-02T12:10:49.795Z,15.00
2022-10-02T12:13:38.077Z,14.70
2022-10-02T12:16:15.060Z,14.80
2022-10-02T12:19:02.840Z,14.90
2022-10-02T12:22:01.979Z,15.10
2022-10-02T12:25:01.241Z,14.90
2022-10-02T12:27:44.316Z,14.90
2022-10-02T12:30:15.829Z,14.90
2022-10-02T12:33:01.767Z,15.00
2022-10-02T12:35:58.986Z,14.90
2022-10-02T12:38:39.151Z,14.60
2022-10-02T12:41:18.667Z,14.50
2022-10-02T12:44:32.098Z,14.40
2022-10-02T12:47:38.407Z,14.50
2022-10-02T12:50:21.023Z,14.60
2022-10-02T12:53:26.387Z,14.50
2022-10-02T12:56:21.316Z,14.60
2022-10-02T12:59:04.823Z,14.80
2022-10-02T13:02:12.215Z,15.00
2022-10-02T13:05:25.632Z,15.40
2022-10-02T13:08:14.174Z,15.90
2022-10-02T13:10:48.179Z,15.90
2022-10-02T13:13:36.074Z,15.70
2022-10-02T13:16:12.851Z,15.70
2022-10-02T13:18:59.117Z,15.70
2022-10-02T13:21:39.370Z,15.70
2022-10-02T13:24:33.126Z,15.60
2022-10-02T13:27:18.710Z,15.20
2022-10-02T13:29:59.425Z,14.90
2022-10-02T13:32:44.571Z,14.70
2022-10-02T13:35:36.557Z,14.50
2022-10-02T13:38:23.249Z,14.30
2022-10-02T13:41:04.960Z,14.20
2022-10-02T13:43:57.805Z,14.10
2022-10-02T13:46:44.667Z,14.00
2022-10-02T13:49:23.017Z,13.90
2022-10-02T13:51:59.245Z,13.90
2022-10-02T13:54:48.173Z,13.90
2022-10-02T13:57:28.267Z,14.10
2022-10-02T14:00:09.189Z,14.10
2022-10-02T14:02:53.005Z,14.00
2022-10-02T14:05:34.026Z,13.90
2022-10-02T14:08:13.818Z,13.80
2022-10-02T14:10:54.171Z,13.80
2022-10-02T14:13:38.414Z,13.80
2022-10-02T14:16:25.538Z,13.80
2022-10-02T14:19:13.661Z,13.90
2022-10-02T14:21:55.794Z,14.00
2022-10-02T14:24:56.147Z,14.10
2022-10-02T14:27:56.449Z,14.30
2022-10-02T14:30:34.218Z,14.20
2022-10-02T14:33:11.760Z,14.10
2022-10-02T14:35:56.124Z,14.10
2022-10-02T14:38:35.416Z,14.00
2022-10-02T14:41:25.303Z,14.00
2022-10-02T14:44:20.096Z,14.10
2022-10-02T14:47:15.507Z,14.00
2022-10-02T14:50:15.957Z,14.00
2022-10-02T14:53:08.891Z,14.00
2022-10-02T14:55:54.860Z,14.00
2022-10-02T14:58:38.097Z,14.00
2022-10-02T15:01:21.254Z,13.90
2022-10-02T15:04:21.953Z,13.90
2022-10-02T15:07:03.952Z,13.80
2022-10-02T15:09:41.236Z,13.80
2022-10-02T15:12:15.110Z,13.80
2022-10-02T15:14:57.005Z,13.70
2022-10-02T15:17:51.084Z,13.80
2022-10-02T15:20:31.925Z,13.90
2022-10-02T15:23:01.555Z,14.00
2022-10-02T15:25:57.689Z,14.20
2022-10-02T15:28:39.799Z,14.30
2022-10-02T15:31:20.226Z,14.40
2022-10-02T15:34:04.028Z,14.40
2022-10-02T15:36:50.030Z,14.30
2022-10-02T15:39:38.224Z,14.10
2022-10-02T15:42:08.690Z,14.00
2022-10-02T15:44:54.491Z,13.70
2022-10-02T15:47:39.064Z,13.50
2022-10-02T15:50:20.458Z,13.30
2022-10-02T15:53:02.895Z,13.00
2022-10-02T15:55:39.757Z,12.90
2022-10-02T15:58:28.773Z,12.90
2022-10-02T16:01:29.498Z,12.80
2022-10-02T16:04:04.735Z,12.80
2022-10-02T16:06:53.671Z,12.80
2022-10-02T16:09:42.612Z,12.80
2022-10-02T16:12:36.707Z,12.70
2022-10-02T16:15:17.928Z,12.70
2022-10-02T16:17:58.484Z,12.70
2022-10-02T16:20:37.547Z,12.70
2022-10-02T16:23:32.867Z,12.70
2022-10-02T16:26:16.888Z,12.70
2022-10-02T16:28:55.877Z,12.60
2022-10-02T16:31:37.402Z,12.70
2022-10-02T16:34:20.189Z,13.20
2022-10-02T16:36:53.903Z,13.80
2022-10-02T16:39:38.498Z,14.60
2022-10-02T16:42:21.450Z,14.50
2022-10-02T16:45:05.979Z,14.70
2022-10-02T16:47:43.856Z,14.50
2022-10-02T16:50:19.210Z,14.20
2022-10-02T16:52:53.413Z,13.90
2022-10-02T16:55:26.324Z,13.50
2022-10-02T16:58:04.191Z,13.20
2022-10-02T17:00:35.051Z,12.90
2022-10-02T17:03:11.676Z,12.70
2022-10-02T17:05:49.162Z,12.50
2022-10-02T17:08:24.060Z,12.30
2022-10-02T17:11:09.187Z,12.10
2022-10-02T17:13:50.664Z,11.90
2022-10-02T17:16:24.291Z,11.80
2022-10-02T17:18:57.100Z,11.60
2022-10-02T17:21:30.521Z,11.40
2022-10-02T17:24:21.253Z,11.30
2022-10-02T17:26:54.471Z,11.20
2022-10-02T17:29:30.755Z,11.20
2022-10-02T17:31:59.692Z,11.10
2022-10-02T17:34:32.033Z,11.20
2022-10-02T17:37:08.445Z,11.10
2022-10-02T17:39:53.555Z,10.90
2022-10-02T17:42:32.742Z,10.80
2022-10-02T17:45:16.489Z,10.80
2022-10-02T17:48:16.440Z,10.70
2022-10-02T17:51:00.492Z,10.60
2022-10-02T17:54:13.111Z,10.50
2022-10-02T17:56:58.805Z,10.40
2022-10-02T17:59:45.551Z,10.40
2022-10-02T18:02:27.982Z,10.40
2022-10-02T18:05:18.872Z,10.10
2022-10-02T18:08:00.911Z,9.90
2022-10-02T18:10:38.885Z,9.80
2022-10-02T18:13:39.248Z,9.70
2022-10-02T18:16:22.590Z,9.60
2022-10-02T18:19:23.809Z,9.40
2022-10-02T18:22:20.364Z,9.10
2022-10-02T18:25:04.357Z,8.90
2022-10-02T18:27:55.755Z,8.90
2022-10-02T18:30:26.081Z,9.10
2022-10-02T18:33:13.771Z,9.00
2022-10-02T18:35:52.600Z,8.90
2022-10-02T18:38:29.856Z,8.90
2022-10-02T18:41:08.835Z,8.90
2022-10-02T18:43:55.364Z,8.90
2022-10-02T18:46:37.207Z,8.80
2022-10-02T18:49:23.997Z,9.00
2022-10-02T18:52:10.005Z,9.10
2022-10-02T18:54:50.767Z,9.20
2022-10-02T18:57:36.637Z,9.20
2022-10-02T19:00:17.260Z,9.00
2022-10-02T19:03:05.940Z,8.90
2022-10-02T19:05:39.656Z,8.70
2022-10-02T19:08:17.920Z,8.50
2022-10-02T19:10:47.902Z,8.50
2022-10-02T19:13:23.475Z,8.50
2022-10-02T19:15:53.348Z,8.40
2022-10-02T19:18:23.531Z,8.60
2022-10-02T19:20:56.692Z,8.60
2022-10-02T19:23:31.583Z,8.60
2022-10-02T19:26:05.508Z,8.70
2022-10-02T19:28:45.412Z,8.70
2022-10-02T19:31:14.224Z,8.80
2022-10-02T19:33:47.131Z,8.80
2022-10-02T19:36:19.535Z,9.10
2022-10-02T19:38:55.236Z,9.30
2022-10-02T19:41:24.054Z,9.40
2022-10-02T19:43:57.051Z,9.40
2022-10-02T19:46:35.426Z,9.40
2022-10-02T19:49:05.575Z,9.50
2022-10-02T19:51:44.089Z,9.50
2022-10-02T19:54:19.981Z,9.30
2022-10-02T19:56:48.425Z,9.30
2022-10-02T19:59:19.898Z,9.30
2022-10-02T20:01:52.637Z,9.30
2022-10-02T20:04:22.903Z,9.30
2022-10-02T20:06:54.411Z,9.40
2022-10-02T20:09:30.827Z,9.40
2022-10-02T20:12:05.108Z,9.40
2022-10-02T20:14:40.759Z,9.40
2022-10-02T20:17:09.781Z,9.40
2022-10-02T20:19:42.363Z,9.50
2022-10-02T20:22:19.489Z,9.50
2022-10-02T20:24:54.582Z,9.60
2022-10-02T20:27:31.169Z,9.60
2022-10-02T20:30:04.232Z,9.70
2022-10-02T20:32:38.469Z,9.70
2022-10-02T20:35:13.932Z,9.70
2022-10-02T20:37:45.942Z,9.70
2022-10-02T20:40:20.148Z,9.70
2022-10-02T20:42:55.765Z,9.70
2022-10-02T20:45:29.903Z,9.60
2022-10-02T20:49:03.040Z,9.70
2022-10-02T20:51:50.520Z,9.60
2022-10-02T20:54:33.856Z,9.50
2022-10-02T20:58:06.507Z,9.40
2022-10-02T21:00:51.102Z,9.40
2022-10-02T21:03:44.851Z,9.40
2022-10-02T21:06:32.525Z,9.40
2022-10-02T21:09:30.045Z,9.40
2022-10-02T21:12:23.421Z,9.40
2022-10-02T21:15:11.375Z,9.30
2022-10-02T21:18:08.654Z,9.10
2022-10-02T21:21:08.183Z,9.10
2022-10-02T21:24:01.360Z,9.00
2022-10-02T21:27:13.993Z,9.00
2022-10-02T21:30:00.022Z,9.00
2022-10-02T21:33:04.301Z,9.00
2022-10-02T21:35:42.276Z,9.10
2022-10-02T21:38:42.248Z,9.10
2022-10-02T21:41:48.654Z,9.20
2022-10-02T21:45:04.271Z,9.20
2022-10-02T21:48:04.604Z,9.20
2022-10-02T21:51:18.157Z,9.20
2022-10-02T21:54:33.454Z,9.20
2022-10-02T21:57:32.253Z,9.30
2022-10-02T22:00:15.302Z,9.30
2022-10-02T22:03:24.887Z,9.20
2022-10-02T22:06:22.249Z,9.10
2022-10-02T22:09:05.537Z,9.10
2022-10-02T22:11:44.470Z,9.10
2022-10-02T22:14:19.195Z,9.10
2022-10-02T22:16:59.179Z,9.00
2022-10-02T22:19:51.940Z,9.00
2022-10-02T22:22:36.307Z,9.00
2022-10-02T22:25:24.632Z,9.00
2022-10-02T22:28:16.737Z,9.10
2022-10-02T22:31:02.855Z,9.10
2022-10-02T22:33:41.896Z,9.00
2022-10-02T22:36:34.417Z,9.10
2022-10-02T22:39:07.485Z,9.10
2022-10-02T22:41:39.642Z,9.00
2022-10-02T22:44:19.755Z,9.00
2022-10-02T22:46:51.989Z,9.00
2022-10-02T22:49:27.024Z,9.00
2022-10-02T22:52:03.131Z,9.00
2022-10-02T22:54:40.887Z,9.00
2022-10-02T22:57:16.435Z,9.00
2022-10-02T22:59:53.929Z,8.90
2022-10-02T23:02:28.253Z,8.80
2022-10-02T23:05:05.961Z,8.80
2022-10-02T23:07:42.629Z,8.80
2022-10-02T23:10:19.364Z,8.70
2022-10-02T23:12:58.591Z,8.70
2022-10-02T23:15:35.696Z,8.70
2022-10-02T23:18:06.413Z,8.70
2022-10-02T23:20:39.903Z,8.60
2022-10-02T23:23:15.446Z,8.60
2022-10-02T23:25:49.451Z,8.60
2022-10-02T23:28:24.465Z,8.60
2022-10-02T23:31:08.539Z,8.60
2022-10-02T23:33:47.851Z,8.50
2022-10-02T23:36:25.271Z,8.50
2022-10-02T23:39:03.475Z,8.50
2022-10-02T23:41:40.624Z,8.50
2022-10-02T23:44:17.977Z,8.50
2022-10-02T23:47:06.279Z,8.50
2022-10-02T23:49:37.920Z,8.60
2022-10-02T23:52:28.096Z,8.50
2022-10-02T23:55:15.153Z,8.50
2022-10-02T23:58:00.279Z,8.50
